sensor_id;sensor_type;location;lat;lon;timestamp;P1;durP1;ratioP1;P2;durP2;ratioP2
1460;SDS011;724;49.910;12.530;2024-01-06T00:02:19;16.60;;;15.80;;
1460;SDS011;724;49.910;12.530;2024-01-06T00:04:50;16.50;;;15.70;;
1460;SDS011;724;49.910;12.530;2024-01-06T00:07:17;17.40;;;16.50;;
1460;SDS011;724;49.910;12.530;2024-01-06T00:09:44;16.38;;;15.57;;
1460;SDS011;724;49.910;12.530;2024-01-06T00:12:10;16.70;;;15.90;;
1460;SDS011;724;49.910;12.530;2024-01-06T00:14:37;16.30;;;15.50;;
1460;SDS011;724;49.910;12.530;2024-01-06T00:17:10;16.40;;;15.60;;
1460;SDS011;724;49.910;12.530;2024-01-06T00:19:36;16.50;;;15.70;;
1460;SDS011;724;49.910;12.530;2024-01-06T00:22:05;16.33;;;15.52;;
1460;SDS011;724;49.910;12.530;2024-01-06T00:24:31;16.20;;;15.40;;
1460;SDS011;724;49.910;12.530;2024-01-06T00:26:58;16.10;;;15.30;;
1460;SDS011;724;49.910;12.530;2024-01-06T00:29:25;16.45;;;15.65;;
1460;SDS011;724;49.910;12.530;2024-01-06T00:31:51;15.90;;;15.10;;
1460;SDS011;724;49.910;12.530;2024-01-06T00:34:18;16.25;;;15.45;;
1460;SDS011;724;49.910;12.530;2024-01-06T00:36:45;16.60;;;15.80;;
1460;SDS011;724;49.910;12.530;2024-01-06T00:39:13;16.40;;;15.60;;
1460;SDS011;724;49.910;12.530;2024-01-06T00:41:40;16.55;;;15.75;;
1460;SDS011;724;49.910;12.530;2024-01-06T00:44:06;16.45;;;15.65;;
1460;SDS011;724;49.910;12.530;2024-01-06T00:46:33;16.33;;;15.52;;
1460;SDS011;724;49.910;12.530;2024-01-06T00:49:00;15.90;;;15.10;;
1460;SDS011;724;49.910;12.530;2024-01-06T00:51:27;15.95;;;15.15;;
1460;SDS011;724;49.910;12.530;2024-01-06T00:53:54;16.10;;;15.30;;
1460;SDS011;724;49.910;12.530;2024-01-06T00:56:22;15.70;;;14.90;;
1460;SDS011;724;49.910;12.530;2024-01-06T00:58:49;16.00;;;15.20;;
1460;SDS011;724;49.910;12.530;2024-01-06T01:01:16;16.35;;;15.55;;
1460;SDS011;724;49.910;12.530;2024-01-06T01:03:42;16.60;;;15.80;;
1460;SDS011;724;49.910;12.530;2024-01-06T01:06:09;16.25;;;15.45;;
1460;SDS011;724;49.910;12.530;2024-01-06T01:08:36;16.40;;;15.60;;
1460;SDS011;724;49.910;12.530;2024-01-06T01:11:02;16.10;;;15.30;;
1460;SDS011;724;49.910;12.530;2024-01-06T01:13:31;16.70;;;15.90;;
1460;SDS011;724;49.910;12.530;2024-01-06T01:15:57;17.40;;;16.50;;
1460;SDS011;724;49.910;12.530;2024-01-06T01:18:24;17.60;;;16.70;;
1460;SDS011;724;49.910;12.530;2024-01-06T01:20:51;17.63;;;16.73;;
1460;SDS011;724;49.910;12.530;2024-01-06T01:23:18;16.95;;;16.05;;
1460;SDS011;724;49.910;12.530;2024-01-06T01:25:44;17.58;;;16.67;;
1460;SDS011;724;49.910;12.530;2024-01-06T01:28:11;17.63;;;16.73;;
1460;SDS011;724;49.910;12.530;2024-01-06T01:30:40;17.58;;;16.67;;
1460;SDS011;724;49.910;12.530;2024-01-06T01:33:07;17.48;;;16.58;;
1460;SDS011;724;49.910;12.530;2024-01-06T01:35:33;17.40;;;16.50;;
1460;SDS011;724;49.910;12.530;2024-01-06T01:38:00;17.55;;;16.65;;
1460;SDS011;724;49.910;12.530;2024-01-06T01:40:27;17.85;;;16.95;;
1460;SDS011;724;49.910;12.530;2024-01-06T01:42:54;17.63;;;16.73;;
1460;SDS011;724;49.910;12.530;2024-01-06T01:45:21;17.83;;;16.92;;
1460;SDS011;724;49.910;12.530;2024-01-06T01:47:49;17.60;;;16.70;;
1460;SDS011;724;49.910;12.530;2024-01-06T01:50:16;17.90;;;17.00;;
1460;SDS011;724;49.910;12.530;2024-01-06T01:52:45;17.85;;;16.95;;
1460;SDS011;724;49.910;12.530;2024-01-06T01:55:12;17.80;;;16.90;;
1460;SDS011;724;49.910;12.530;2024-01-06T01:57:39;18.23;;;17.33;;
1460;SDS011;724;49.910;12.530;2024-01-06T02:00:07;17.85;;;16.95;;
1460;SDS011;724;49.910;12.530;2024-01-06T02:02:35;17.90;;;17.00;;
1460;SDS011;724;49.910;12.530;2024-01-06T02:05:03;17.83;;;16.92;;
1460;SDS011;724;49.910;12.530;2024-01-06T02:07:30;17.50;;;16.60;;
1460;SDS011;724;49.910;12.530;2024-01-06T02:09:57;18.13;;;17.23;;
1460;SDS011;724;49.910;12.530;2024-01-06T02:12:24;17.90;;;17.00;;
1460;SDS011;724;49.910;12.530;2024-01-06T02:14:50;17.70;;;16.80;;
1460;SDS011;724;49.910;12.530;2024-01-06T02:17:17;17.95;;;17.05;;
1460;SDS011;724;49.910;12.530;2024-01-06T02:19:44;17.50;;;16.60;;
1460;SDS011;724;49.910;12.530;2024-01-06T02:22:12;17.80;;;16.90;;
1460;SDS011;724;49.910;12.530;2024-01-06T02:24:39;17.20;;;16.30;;
1460;SDS011;724;49.910;12.530;2024-01-06T02:27:06;17.77;;;16.88;;
1460;SDS011;724;49.910;12.530;2024-01-06T02:29:32;17.30;;;16.40;;
1460;SDS011;724;49.910;12.530;2024-01-06T02:31:59;17.27;;;16.38;;
1460;SDS011;724;49.910;12.530;2024-01-06T02:34:26;18.02;;;17.13;;
1460;SDS011;724;49.910;12.530;2024-01-06T02:36:53;18.20;;;17.30;;
1460;SDS011;724;49.910;12.530;2024-01-06T02:39:21;17.80;;;16.90;;
1460;SDS011;724;49.910;12.530;2024-01-06T02:41:48;17.60;;;16.70;;
1460;SDS011;724;49.910;12.530;2024-01-06T02:44:15;17.05;;;16.15;;
1460;SDS011;724;49.910;12.530;2024-01-06T02:46:42;23.40;;;22.20;;
1460;SDS011;724;49.910;12.530;2024-01-06T02:49:09;17.65;;;16.75;;
1460;SDS011;724;49.910;12.530;2024-01-06T02:51:35;17.80;;;16.90;;
1460;SDS011;724;49.910;12.530;2024-01-06T02:54:02;17.20;;;16.30;;
1460;SDS011;724;49.910;12.530;2024-01-06T02:56:30;17.77;;;16.88;;
1460;SDS011;724;49.910;12.530;2024-01-06T02:58:57;17.90;;;17.00;;
1460;SDS011;724;49.910;12.530;2024-01-06T03:01:24;17.90;;;17.00;;
1460;SDS011;724;49.910;12.530;2024-01-06T03:03:51;18.27;;;17.38;;
1460;SDS011;724;49.910;12.530;2024-01-06T03:06:17;17.63;;;16.73;;
1460;SDS011;724;49.910;12.530;2024-01-06T03:08:44;17.70;;;16.80;;
1460;SDS011;724;49.910;12.530;2024-01-06T03:11:11;17.67;;;16.77;;
1460;SDS011;724;49.910;12.530;2024-01-06T03:13:39;17.50;;;16.60;;
1460;SDS011;724;49.910;12.530;2024-01-06T03:16:06;17.90;;;17.00;;
1460;SDS011;724;49.910;12.530;2024-01-06T03:18:33;17.80;;;16.90;;
1460;SDS011;724;49.910;12.530;2024-01-06T03:20:59;17.80;;;16.90;;
1460;SDS011;724;49.910;12.530;2024-01-06T03:23:26;17.70;;;16.80;;
1460;SDS011;724;49.910;12.530;2024-01-06T03:25:53;17.90;;;17.00;;
1460;SDS011;724;49.910;12.530;2024-01-06T03:28:20;17.90;;;17.00;;
1460;SDS011;724;49.910;12.530;2024-01-06T03:30:48;18.40;;;17.50;;
1460;SDS011;724;49.910;12.530;2024-01-06T03:33:15;17.60;;;16.70;;
1460;SDS011;724;49.910;12.530;2024-01-06T03:35:41;17.80;;;16.90;;
1460;SDS011;724;49.910;12.530;2024-01-06T03:38:08;18.23;;;17.33;;
1460;SDS011;724;49.910;12.530;2024-01-06T03:40:35;17.90;;;17.00;;
1460;SDS011;724;49.910;12.530;2024-01-06T03:43:02;17.80;;;16.90;;
1460;SDS011;724;49.910;12.530;2024-01-06T03:45:29;17.80;;;16.90;;
1460;SDS011;724;49.910;12.530;2024-01-06T03:47:57;17.80;;;16.90;;
1460;SDS011;724;49.910;12.530;2024-01-06T03:50:24;18.08;;;17.17;;
1460;SDS011;724;49.910;12.530;2024-01-06T03:52:50;17.90;;;17.00;;
1460;SDS011;724;49.910;12.530;2024-01-06T03:55:18;17.80;;;16.90;;
1460;SDS011;724;49.910;12.530;2024-01-06T03:57:44;17.70;;;16.80;;
1460;SDS011;724;49.910;12.530;2024-01-06T04:00:11;17.90;;;17.00;;
1460;SDS011;724;49.910;12.530;2024-01-06T04:02:38;17.70;;;16.80;;
1460;SDS011;724;49.910;12.530;2024-01-06T04:05:06;17.90;;;17.00;;
1460;SDS011;724;49.910;12.530;2024-01-06T04:07:33;17.80;;;16.90;;
1460;SDS011;724;49.910;12.530;2024-01-06T04:10:00;17.90;;;17.00;;
1460;SDS011;724;49.910;12.530;2024-01-06T04:12:27;17.50;;;16.60;;
1460;SDS011;724;49.910;12.530;2024-01-06T04:14:53;17.90;;;17.00;;
1460;SDS011;724;49.910;12.530;2024-01-06T04:17:20;17.90;;;17.00;;
1460;SDS011;724;49.910;12.530;2024-01-06T04:19:47;17.83;;;16.92;;
1460;SDS011;724;49.910;12.530;2024-01-06T04:22:15;18.10;;;17.20;;
1460;SDS011;724;49.910;12.530;2024-01-06T04:24:42;17.90;;;17.00;;
1460;SDS011;724;49.910;12.530;2024-01-06T04:27:08;17.65;;;16.75;;
1460;SDS011;724;49.910;12.530;2024-01-06T04:29:35;17.95;;;17.05;;
1460;SDS011;724;49.910;12.530;2024-01-06T04:32:02;17.92;;;17.02;;
1460;SDS011;724;49.910;12.530;2024-01-06T04:34:29;18.08;;;17.17;;
1460;SDS011;724;49.910;12.530;2024-01-06T04:36:56;17.95;;;17.05;;
1460;SDS011;724;49.910;12.530;2024-01-06T04:39:24;18.10;;;17.20;;
1460;SDS011;724;49.910;12.530;2024-01-06T04:41:51;18.02;;;17.13;;
1460;SDS011;724;49.910;12.530;2024-01-06T04:44:19;18.00;;;17.10;;
1460;SDS011;724;49.910;12.530;2024-01-06T04:46:47;17.73;;;16.83;;
1460;SDS011;724;49.910;12.530;2024-01-06T04:49:14;17.60;;;16.70;;
1460;SDS011;724;49.910;12.530;2024-01-06T04:51:40;17.45;;;16.55;;
1460;SDS011;724;49.910;12.530;2024-01-06T04:54:07;17.60;;;16.70;;
1460;SDS011;724;49.910;12.530;2024-01-06T04:56:35;17.90;;;17.00;;
1460;SDS011;724;49.910;12.530;2024-01-06T04:59:02;17.40;;;16.50;;
1460;SDS011;724;49.910;12.530;2024-01-06T05:01:29;17.52;;;16.63;;
1460;SDS011;724;49.910;12.530;2024-01-06T05:03:56;17.70;;;16.80;;
1460;SDS011;724;49.910;12.530;2024-01-06T05:06:21;17.40;;;16.50;;
1460;SDS011;724;49.910;12.530;2024-01-06T05:08:49;17.65;;;16.75;;
1460;SDS011;724;49.910;12.530;2024-01-06T05:11:16;17.20;;;16.30;;
1460;SDS011;724;49.910;12.530;2024-01-06T05:13:44;17.40;;;16.50;;
1460;SDS011;724;49.910;12.530;2024-01-06T05:16:10;17.10;;;16.20;;
1460;SDS011;724;49.910;12.530;2024-01-06T05:18:37;17.25;;;16.35;;
1460;SDS011;724;49.910;12.530;2024-01-06T05:21:04;17.65;;;16.75;;
1460;SDS011;724;49.910;12.530;2024-01-06T05:23:31;17.52;;;16.63;;
1460;SDS011;724;49.910;12.530;2024-01-06T05:25:57;18.10;;;17.20;;
1460;SDS011;724;49.910;12.530;2024-01-06T05:28:24;18.02;;;17.13;;
1460;SDS011;724;49.910;12.530;2024-01-06T05:30:52;17.40;;;16.50;;
1460;SDS011;724;49.910;12.530;2024-01-06T05:33:19;17.70;;;16.80;;
1460;SDS011;724;49.910;12.530;2024-01-06T05:35:46;17.40;;;16.50;;
1460;SDS011;724;49.910;12.530;2024-01-06T05:38:13;17.40;;;16.50;;
1460;SDS011;724;49.910;12.530;2024-01-06T05:40:40;17.40;;;16.50;;
1460;SDS011;724;49.910;12.530;2024-01-06T05:43:07;17.60;;;16.70;;
1460;SDS011;724;49.910;12.530;2024-01-06T05:45:35;17.63;;;16.73;;
1460;SDS011;724;49.910;12.530;2024-01-06T05:48:05;17.40;;;16.50;;
1460;SDS011;724;49.910;12.530;2024-01-06T05:50:35;17.30;;;16.40;;
1460;SDS011;724;49.910;12.530;2024-01-06T05:53:01;17.30;;;16.40;;
1460;SDS011;724;49.910;12.530;2024-01-06T05:55:28;17.63;;;16.73;;
1460;SDS011;724;49.910;12.530;2024-01-06T05:57:55;17.70;;;16.80;;
1460;SDS011;724;49.910;12.530;2024-01-06T06:00:22;17.85;;;16.95;;
1460;SDS011;724;49.910;12.530;2024-01-06T06:02:49;17.90;;;17.00;;
1460;SDS011;724;49.910;12.530;2024-01-06T06:05:17;18.00;;;17.10;;
1460;SDS011;724;49.910;12.530;2024-01-06T06:07:45;17.70;;;16.80;;
1460;SDS011;724;49.910;12.530;2024-01-06T06:10:12;17.60;;;16.70;;
1460;SDS011;724;49.910;12.530;2024-01-06T06:12:41;17.60;;;16.70;;
1460;SDS011;724;49.910;12.530;2024-01-06T06:15:08;17.67;;;16.77;;
1460;SDS011;724;49.910;12.530;2024-01-06T06:17:36;17.75;;;16.85;;
1460;SDS011;724;49.910;12.530;2024-01-06T06:20:03;17.80;;;16.90;;
1460;SDS011;724;49.910;12.530;2024-01-06T06:22:33;18.00;;;17.10;;
1460;SDS011;724;49.910;12.530;2024-01-06T06:24:59;17.60;;;16.70;;
1460;SDS011;724;49.910;12.530;2024-01-06T06:27:26;17.40;;;16.50;;
1460;SDS011;724;49.910;12.530;2024-01-06T06:29:54;17.77;;;16.88;;
1460;SDS011;724;49.910;12.530;2024-01-06T06:32:21;17.80;;;16.90;;
1460;SDS011;724;49.910;12.530;2024-01-06T06:34:48;17.70;;;16.80;;
1460;SDS011;724;49.910;12.530;2024-01-06T06:37:15;17.80;;;16.90;;
1460;SDS011;724;49.910;12.530;2024-01-06T06:39:43;18.00;;;17.10;;
1460;SDS011;724;49.910;12.530;2024-01-06T06:42:10;17.80;;;16.90;;
1460;SDS011;724;49.910;12.530;2024-01-06T06:44:37;18.00;;;17.10;;
1460;SDS011;724;49.910;12.530;2024-01-06T06:47:04;17.95;;;17.05;;
1460;SDS011;724;49.910;12.530;2024-01-06T06:49:31;17.65;;;16.75;;
1460;SDS011;724;49.910;12.530;2024-01-06T06:51:57;17.48;;;16.58;;
1460;SDS011;724;49.910;12.530;2024-01-06T06:54:24;17.40;;;16.50;;
1460;SDS011;724;49.910;12.530;2024-01-06T06:56:52;17.60;;;16.70;;
1460;SDS011;724;49.910;12.530;2024-01-06T06:59:19;17.60;;;16.70;;
1460;SDS011;724;49.910;12.530;2024-01-06T07:01:46;17.90;;;17.00;;
1460;SDS011;724;49.910;12.530;2024-01-06T07:04:12;17.48;;;16.58;;
1460;SDS011;724;49.910;12.530;2024-01-06T07:06:39;17.52;;;16.63;;
1460;SDS011;724;49.910;12.530;2024-01-06T07:09:06;17.48;;;16.58;;
1460;SDS011;724;49.910;12.530;2024-01-06T07:11:33;17.48;;;16.58;;
1460;SDS011;724;49.910;12.530;2024-01-06T07:14:01;17.23;;;16.33;;
1460;SDS011;724;49.910;12.530;2024-01-06T07:16:28;16.50;;;15.70;;
1460;SDS011;724;49.910;12.530;2024-01-06T07:18:54;16.40;;;15.60;;
1460;SDS011;724;49.910;12.530;2024-01-06T07:21:21;16.20;;;15.40;;
1460;SDS011;724;49.910;12.530;2024-01-06T07:23:48;16.50;;;15.70;;
1460;SDS011;724;49.910;12.530;2024-01-06T07:26:15;16.48;;;15.68;;
1460;SDS011;724;49.910;12.530;2024-01-06T07:28:42;16.50;;;15.70;;
1460;SDS011;724;49.910;12.530;2024-01-06T07:31:11;16.20;;;15.40;;
1460;SDS011;724;49.910;12.530;2024-01-06T07:33:37;16.20;;;15.40;;
1460;SDS011;724;49.910;12.530;2024-01-06T07:36:05;16.00;;;15.20;;
1460;SDS011;724;49.910;12.530;2024-01-06T07:38:32;16.20;;;15.40;;
1460;SDS011;724;49.910;12.530;2024-01-06T07:40:58;16.52;;;15.73;;
1460;SDS011;724;49.910;12.530;2024-01-06T07:43:25;16.55;;;15.75;;
1460;SDS011;724;49.910;12.530;2024-01-06T07:45:53;16.40;;;15.60;;
1460;SDS011;724;49.910;12.530;2024-01-06T07:48:21;16.48;;;15.68;;
1460;SDS011;724;49.910;12.530;2024-01-06T07:50:48;16.20;;;15.40;;
1460;SDS011;724;49.910;12.530;2024-01-06T07:53:15;16.30;;;15.50;;
1460;SDS011;724;49.910;12.530;2024-01-06T07:55:42;16.45;;;15.65;;
1460;SDS011;724;49.910;12.530;2024-01-06T07:58:08;16.40;;;15.60;;
1460;SDS011;724;49.910;12.530;2024-01-06T08:00:36;16.70;;;15.90;;
1460;SDS011;724;49.910;12.530;2024-01-06T08:03:03;16.40;;;15.60;;
1460;SDS011;724;49.910;12.530;2024-01-06T08:05:32;16.30;;;15.50;;
1460;SDS011;724;49.910;12.530;2024-01-06T08:07:59;16.33;;;15.52;;
1460;SDS011;724;49.910;12.530;2024-01-06T08:10:26;16.00;;;15.20;;
1460;SDS011;724;49.910;12.530;2024-01-06T08:12:52;16.40;;;15.60;;
1460;SDS011;724;49.910;12.530;2024-01-06T08:15:19;16.50;;;15.70;;
1460;SDS011;724;49.910;12.530;2024-01-06T08:17:46;16.30;;;15.50;;
1460;SDS011;724;49.910;12.530;2024-01-06T08:20:13;16.23;;;15.43;;
1460;SDS011;724;49.910;12.530;2024-01-06T08:22:41;16.00;;;15.20;;
1460;SDS011;724;49.910;12.530;2024-01-06T08:25:09;16.50;;;15.70;;
1460;SDS011;724;49.910;12.530;2024-01-06T08:27:36;16.40;;;15.60;;
1460;SDS011;724;49.910;12.530;2024-01-06T08:30:03;16.08;;;15.27;;
1460;SDS011;724;49.910;12.530;2024-01-06T08:32:31;16.40;;;15.60;;
1460;SDS011;724;49.910;12.530;2024-01-06T08:34:57;16.50;;;15.70;;
1460;SDS011;724;49.910;12.530;2024-01-06T08:37:24;16.17;;;15.38;;
1460;SDS011;724;49.910;12.530;2024-01-06T08:39:52;16.48;;;15.68;;
1460;SDS011;724;49.910;12.530;2024-01-06T08:42:19;16.65;;;15.85;;
1460;SDS011;724;49.910;12.530;2024-01-06T08:44:46;16.50;;;15.70;;
1460;SDS011;724;49.910;12.530;2024-01-06T08:47:13;16.20;;;15.40;;
1460;SDS011;724;49.910;12.530;2024-01-06T08:49:40;16.40;;;15.60;;
1460;SDS011;724;49.910;12.530;2024-01-06T08:52:06;16.50;;;15.70;;
1460;SDS011;724;49.910;12.530;2024-01-06T08:54:33;16.30;;;15.50;;
1460;SDS011;724;49.910;12.530;2024-01-06T08:57:02;16.10;;;15.30;;
1460;SDS011;724;49.910;12.530;2024-01-06T08:59:31;15.98;;;15.18;;
1460;SDS011;724;49.910;12.530;2024-01-06T09:01:58;16.00;;;15.20;;
1460;SDS011;724;49.910;12.530;2024-01-06T09:04:26;16.60;;;15.80;;
1460;SDS011;724;49.910;12.530;2024-01-06T09:06:52;16.90;;;16.00;;
1460;SDS011;724;49.910;12.530;2024-01-06T09:09:19;16.50;;;15.70;;
1460;SDS011;724;49.910;12.530;2024-01-06T09:11:48;16.98;;;16.08;;
1460;SDS011;724;49.910;12.530;2024-01-06T09:14:18;16.90;;;16.00;;
1460;SDS011;724;49.910;12.530;2024-01-06T09:16:44;16.90;;;16.00;;
1460;SDS011;724;49.910;12.530;2024-01-06T09:19:11;16.48;;;15.68;;
1460;SDS011;724;49.910;12.530;2024-01-06T09:21:38;16.40;;;15.60;;
1460;SDS011;724;49.910;12.530;2024-01-06T09:24:05;16.55;;;15.75;;
1460;SDS011;724;49.910;12.530;2024-01-06T09:26:32;16.60;;;15.80;;
1460;SDS011;724;49.910;12.530;2024-01-06T09:28:59;16.70;;;15.90;;
1460;SDS011;724;49.910;12.530;2024-01-06T09:31:27;16.63;;;15.82;;
1460;SDS011;724;49.910;12.530;2024-01-06T09:33:54;16.98;;;16.08;;
1460;SDS011;724;49.910;12.530;2024-01-06T09:36:21;16.95;;;16.05;;
1460;SDS011;724;49.910;12.530;2024-01-06T09:38:48;17.00;;;16.10;;
1460;SDS011;724;49.910;12.530;2024-01-06T09:41:15;17.05;;;16.15;;
1460;SDS011;724;49.910;12.530;2024-01-06T09:43:42;17.00;;;16.10;;
1460;SDS011;724;49.910;12.530;2024-01-06T09:46:10;16.65;;;15.85;;
1460;SDS011;724;49.910;12.530;2024-01-06T09:48:44;17.15;;;16.25;;
1460;SDS011;724;49.910;12.530;2024-01-06T09:51:12;17.30;;;16.40;;
1460;SDS011;724;49.910;12.530;2024-01-06T09:53:42;17.50;;;16.60;;
1460;SDS011;724;49.910;12.530;2024-01-06T09:56:14;17.23;;;16.33;;
1460;SDS011;724;49.910;12.530;2024-01-06T09:58:42;17.30;;;16.40;;
1460;SDS011;724;49.910;12.530;2024-01-06T10:01:10;17.52;;;16.63;;
1460;SDS011;724;49.910;12.530;2024-01-06T10:03:39;17.08;;;16.17;;
1460;SDS011;724;49.910;12.530;2024-01-06T10:06:07;16.90;;;16.00;;
1460;SDS011;724;49.910;12.530;2024-01-06T10:08:34;17.52;;;16.63;;
1460;SDS011;724;49.910;12.530;2024-01-06T10:11:02;16.90;;;16.00;;
1460;SDS011;724;49.910;12.530;2024-01-06T10:13:28;17.15;;;16.25;;
1460;SDS011;724;49.910;12.530;2024-01-06T10:15:55;16.60;;;15.80;;
1460;SDS011;724;49.910;12.530;2024-01-06T10:18:22;16.67;;;15.88;;
1460;SDS011;724;49.910;12.530;2024-01-06T10:20:51;17.15;;;16.25;;
1460;SDS011;724;49.910;12.530;2024-01-06T10:23:20;17.00;;;16.10;;
1460;SDS011;724;49.910;12.530;2024-01-06T10:25:51;17.15;;;16.25;;
1460;SDS011;724;49.910;12.530;2024-01-06T10:28:18;16.75;;;15.93;;
1460;SDS011;724;49.910;12.530;2024-01-06T10:30:46;17.02;;;16.13;;
1460;SDS011;724;49.910;12.530;2024-01-06T10:33:13;17.52;;;16.63;;
1460;SDS011;724;49.910;12.530;2024-01-06T10:35:40;17.20;;;16.30;;
1460;SDS011;724;49.910;12.530;2024-01-06T10:38:08;17.10;;;16.20;;
1460;SDS011;724;49.910;12.530;2024-01-06T10:40:37;17.20;;;16.30;;
1460;SDS011;724;49.910;12.530;2024-01-06T10:43:04;17.10;;;16.20;;
1460;SDS011;724;49.910;12.530;2024-01-06T10:45:32;17.50;;;16.60;;
1460;SDS011;724;49.910;12.530;2024-01-06T10:47:59;17.10;;;16.20;;
1460;SDS011;724;49.910;12.530;2024-01-06T10:50:26;17.10;;;16.20;;
1460;SDS011;724;49.910;12.530;2024-01-06T10:52:57;17.33;;;16.42;;
1460;SDS011;724;49.910;12.530;2024-01-06T10:58:17;17.30;;;16.40;;
1460;SDS011;724;49.910;12.530;2024-01-06T11:00:44;17.15;;;16.25;;
1460;SDS011;724;49.910;12.530;2024-01-06T11:03:11;17.50;;;16.60;;
1460;SDS011;724;49.910;12.530;2024-01-06T11:05:39;17.50;;;16.60;;
1460;SDS011;724;49.910;12.530;2024-01-06T11:08:07;17.98;;;17.08;;
1460;SDS011;724;49.910;12.530;2024-01-06T11:10:35;17.55;;;16.65;;
1460;SDS011;724;49.910;12.530;2024-01-06T11:13:11;17.75;;;16.85;;
1460;SDS011;724;49.910;12.530;2024-01-06T11:15:39;17.30;;;16.40;;
1460;SDS011;724;49.910;12.530;2024-01-06T11:18:08;17.38;;;16.48;;
1460;SDS011;724;49.910;12.530;2024-01-06T11:21:14;17.20;;;16.30;;
1460;SDS011;724;49.910;12.530;2024-01-06T11:23:44;17.50;;;16.60;;
1460;SDS011;724;49.910;12.530;2024-01-06T11:26:11;17.50;;;16.60;;
1460;SDS011;724;49.910;12.530;2024-01-06T11:28:49;17.65;;;16.75;;
1460;SDS011;724;49.910;12.530;2024-01-06T11:31:18;17.20;;;16.30;;
1460;SDS011;724;49.910;12.530;2024-01-06T11:33:45;17.20;;;16.30;;
1460;SDS011;724;49.910;12.530;2024-01-06T11:36:14;17.30;;;16.40;;
1460;SDS011;724;49.910;12.530;2024-01-06T11:38:41;17.00;;;16.10;;
1460;SDS011;724;49.910;12.530;2024-01-06T11:41:13;17.17;;;16.27;;
1460;SDS011;724;49.910;12.530;2024-01-06T11:44:19;17.05;;;16.15;;
1460;SDS011;724;49.910;12.530;2024-01-06T11:46:47;17.00;;;16.10;;
1460;SDS011;724;49.910;12.530;2024-01-06T11:49:15;16.70;;;15.90;;
1460;SDS011;724;49.910;12.530;2024-01-06T11:51:42;16.70;;;15.90;;
1460;SDS011;724;49.910;12.530;2024-01-06T11:54:09;17.30;;;16.40;;
1460;SDS011;724;49.910;12.530;2024-01-06T11:56:37;16.70;;;15.90;;
1460;SDS011;724;49.910;12.530;2024-01-06T11:59:05;16.70;;;15.90;;
1460;SDS011;724;49.910;12.530;2024-01-06T12:01:37;16.95;;;16.05;;
1460;SDS011;724;49.910;12.530;2024-01-06T12:04:04;16.70;;;15.90;;
1460;SDS011;724;49.910;12.530;2024-01-06T12:06:31;16.70;;;15.90;;
1460;SDS011;724;49.910;12.530;2024-01-06T12:09:04;16.90;;;16.00;;
1460;SDS011;724;49.910;12.530;2024-01-06T12:11:31;17.10;;;16.20;;
1460;SDS011;724;49.910;12.530;2024-01-06T12:13:58;17.10;;;16.20;;
1460;SDS011;724;49.910;12.530;2024-01-06T12:16:25;17.10;;;16.20;;
1460;SDS011;724;49.910;12.530;2024-01-06T12:18:53;17.00;;;16.10;;
1460;SDS011;724;49.910;12.530;2024-01-06T12:21:22;16.60;;;15.80;;
1460;SDS011;724;49.910;12.530;2024-01-06T12:23:49;17.23;;;16.33;;
1460;SDS011;724;49.910;12.530;2024-01-06T12:26:16;16.63;;;15.82;;
1460;SDS011;724;49.910;12.530;2024-01-06T12:28:46;16.60;;;15.80;;
1460;SDS011;724;49.910;12.530;2024-01-06T12:31:15;16.27;;;15.48;;
1460;SDS011;724;49.910;12.530;2024-01-06T12:33:44;16.90;;;16.00;;
1460;SDS011;724;49.910;12.530;2024-01-06T12:36:24;17.00;;;16.10;;
1460;SDS011;724;49.910;12.530;2024-01-06T12:38:54;16.70;;;15.90;;
1460;SDS011;724;49.910;12.530;2024-01-06T12:41:23;16.70;;;15.90;;
1460;SDS011;724;49.910;12.530;2024-01-06T12:43:52;16.48;;;15.68;;
1460;SDS011;724;49.910;12.530;2024-01-06T12:46:19;16.70;;;15.88;;
1460;SDS011;724;49.910;12.530;2024-01-06T12:48:48;16.60;;;15.80;;
1460;SDS011;724;49.910;12.530;2024-01-06T12:51:29;16.38;;;15.57;;
1460;SDS011;724;49.910;12.530;2024-01-06T12:53:56;16.50;;;15.70;;
1460;SDS011;724;49.910;12.530;2024-01-06T12:56:23;16.33;;;15.52;;
1460;SDS011;724;49.910;12.530;2024-01-06T12:58:49;16.38;;;15.57;;
1460;SDS011;724;49.910;12.530;2024-01-06T13:01:17;16.00;;;15.20;;
1460;SDS011;724;49.910;12.530;2024-01-06T13:03:44;16.50;;;15.70;;
1460;SDS011;724;49.910;12.530;2024-01-06T13:06:11;16.20;;;15.40;;
1460;SDS011;724;49.910;12.530;2024-01-06T13:08:39;15.88;;;15.07;;
1460;SDS011;724;49.910;12.530;2024-01-06T13:11:06;16.00;;;15.20;;
1460;SDS011;724;49.910;12.530;2024-01-06T13:13:33;15.80;;;15.00;;
1460;SDS011;724;49.910;12.530;2024-01-06T13:15:59;16.00;;;15.20;;
1460;SDS011;724;49.910;12.530;2024-01-06T13:18:26;16.15;;;15.35;;
1460;SDS011;724;49.910;12.530;2024-01-06T13:20:54;16.05;;;15.25;;
1460;SDS011;724;49.910;12.530;2024-01-06T13:23:21;16.00;;;15.20;;
1460;SDS011;724;49.910;12.530;2024-01-06T13:25:50;15.80;;;15.00;;
1460;SDS011;724;49.910;12.530;2024-01-06T13:28:17;16.13;;;15.32;;
1460;SDS011;724;49.910;12.530;2024-01-06T13:30:43;15.93;;;15.13;;
1460;SDS011;724;49.910;12.530;2024-01-06T13:33:11;15.90;;;15.10;;
1460;SDS011;724;49.910;12.530;2024-01-06T13:35:38;16.00;;;15.20;;
1460;SDS011;724;49.910;12.530;2024-01-06T13:38:05;15.95;;;15.15;;
1460;SDS011;724;49.910;12.530;2024-01-06T13:40:34;16.20;;;15.40;;
1460;SDS011;724;49.910;12.530;2024-01-06T13:43:02;16.00;;;15.20;;
1460;SDS011;724;49.910;12.530;2024-01-06T13:45:30;16.02;;;15.23;;
1460;SDS011;724;49.910;12.530;2024-01-06T13:47:56;15.70;;;14.90;;
1460;SDS011;724;49.910;12.530;2024-01-06T13:50:24;15.90;;;15.10;;
1460;SDS011;724;49.910;12.530;2024-01-06T13:52:50;15.70;;;14.90;;
1460;SDS011;724;49.910;12.530;2024-01-06T13:55:17;16.10;;;15.30;;
1460;SDS011;724;49.910;12.530;2024-01-06T13:57:44;15.98;;;15.18;;
1460;SDS011;724;49.910;12.530;2024-01-06T14:00:12;15.73;;;14.93;;
1460;SDS011;724;49.910;12.530;2024-01-06T14:02:43;15.88;;;15.07;;
1460;SDS011;724;49.910;12.530;2024-01-06T14:05:10;16.02;;;15.23;;
1460;SDS011;724;49.910;12.530;2024-01-06T14:07:37;15.90;;;15.10;;
1460;SDS011;724;49.910;12.530;2024-01-06T14:10:05;16.00;;;15.20;;
1460;SDS011;724;49.910;12.530;2024-01-06T14:12:32;16.10;;;15.30;;
1460;SDS011;724;49.910;12.530;2024-01-06T14:15:00;15.95;;;15.15;;
1460;SDS011;724;49.910;12.530;2024-01-06T14:17:29;16.20;;;15.40;;
1460;SDS011;724;49.910;12.530;2024-01-06T14:19:58;16.20;;;15.40;;
1460;SDS011;724;49.910;12.530;2024-01-06T14:22:26;16.10;;;15.30;;
1460;SDS011;724;49.910;12.530;2024-01-06T14:24:53;16.40;;;15.60;;
1460;SDS011;724;49.910;12.530;2024-01-06T14:27:20;16.10;;;15.30;;
1460;SDS011;724;49.910;12.530;2024-01-06T14:29:51;16.00;;;15.20;;
1460;SDS011;724;49.910;12.530;2024-01-06T14:32:20;15.80;;;15.00;;
1460;SDS011;724;49.910;12.530;2024-01-06T14:34:49;16.00;;;15.20;;
1460;SDS011;724;49.910;12.530;2024-01-06T14:37:16;15.57;;;14.77;;
1460;SDS011;724;49.910;12.530;2024-01-06T14:39:43;15.98;;;15.18;;
1460;SDS011;724;49.910;12.530;2024-01-06T14:42:10;15.90;;;15.10;;
1460;SDS011;724;49.910;12.530;2024-01-06T14:44:37;16.27;;;15.48;;
1460;SDS011;724;49.910;12.530;2024-01-06T14:47:05;15.80;;;15.00;;
1460;SDS011;724;49.910;12.530;2024-01-06T14:49:33;16.20;;;15.40;;
1460;SDS011;724;49.910;12.530;2024-01-06T14:52:01;16.00;;;15.20;;
1460;SDS011;724;49.910;12.530;2024-01-06T14:54:28;15.80;;;15.00;;